McCammon, Idaho
Current Conditions -  °F | °C
As of 7:53 AM on Saturday 22 Nov 2014 (Local Time) from KPIH Reporting Station
Light Rain Light Rain  
Wind Chill: 29°   Ceiling: 3200
Heat Index: 39°   Visibility: 10mi
Dew Point: 36°   Wind: 22mph
Humidity: 89%   Direction: 180°S
Pressure: 29.71"   Gusts: NA
Location:  42.65°N, 112.19°W
Report Text: KPIH 221453Z 18019KT 10SM -RA BKN032 OVC050 04/02 A2971 RMK AO2 SLP064 P0000 60012 T00390022 58019
Loading
Personal Weather Stations






























Interactive Weather Map New forecast layout! Learn more

10-Day Weather Forecast

Advertisements
Track Severe Weather on mobile